Etusivu
METAR-TAF:

METAR-TAF

Lentoasemat :

Åre Östersundin lentoasema

Östersund-Frösön, Ruotsi

Leveyspiiri: 63-11N, Pituuspiiri: 014-30E, korkeus merenpinnasta: 376 m

Tämänhetkinen sää

Tämä raportti tehtiin 21 minuuttia sitten, kello 11.20 UTC
Tuuli 11 kn etelästä/kaakosta
Lämpötila 18°C
Kosteus 68%
Ilmanpaine 1007 hPa
Näkyvyys 10 km tai enemmän
Hajonneita pilviä 3700 ft:n korkeudessa

METAR: ESNZ 161120Z 15011KT 9999 BKN037 18/12 Q1007

Aika: 13:41 (11:41 UTC)

Sääennuste

Tämä raportti tehtiin 11 minuuttia sitten, kello 11.30 UTC
Ennuste voimassa 16. päivästä klo 12 UTC - 16. päivään klo 21 UTC
Tuuli 12 kn etelästä
Näkyvyys 10 km tai enemmän
Hajanaisia pilviä 3000 ft:n korkeudessa
Hajonneita pilviä 4500 ft:n korkeudessa
Todennäköisyys 40%
16. päivästä klo 16 UTC - 16. päivään klo 21 UTC
Tuuli 15 kn etelästä puuskistuen 25 kn:hen

TAF: ESNZ 161130Z 1612/1621 17012KT 9999 SCT030 BKN045 PROB40 1616/1621 17015G25KT

Säähavainnot ja -ennusteet yli 4000 lentoasemalta (METAR- ja TAF-raportit).

Käytössä olevat sääasemat on merkitty karttaan keltaisilla ja punaisilla pisteillä.

Aseta hiiri pisteen päälle nähdäksesi sääaseman nimen.

Klikkaa sitten nähdäksesi säähavainnot ja -ennusteet.

Kartan vaihtaminen: klikkaa mustalla rastilla varustettuja vihreitä pisteitä, niin voit zoomata sisään; viivalla varustettua vihreää pistettä, niin voit zoomata ulos tai vihreitä nuolia, niin pääset viereisille kartoille.


METAR-TAF: